Treharris, United Kingdom
Current Conditions -  °F | °C
As of 4:20 AM on Thursday 29 Jan 2015 (Local Time) from EGFF Reporting Station
Few Clouds Few Clouds  
Wind Chill: 30°   Ceiling: Unl
Heat Index: 39°   Visibility: 6mi
Dew Point: 36°   Wind: 16mph
Humidity: 87%   Direction: 280°W
Pressure: 29.35"   Gusts: NA
Location:  51.66°N, 3.31°W
Report Text: EGFF 290420Z AUTO 28014KT 9999 FEW010/// //////TCU 04/02 Q0994 RERA
Loading
Personal Weather Stations






























Interactive Weather Map New forecast layout! Learn more

10-Day Weather Forecast

Advertisements
Track Severe Weather on mobile